sensor_id;sensor_type;location;lat;lon;timestamp;temperature;humidity
5461;DHT22;2753;49.196;8.286;2024-02-16T00:01:00;11.90;99.90
5461;DHT22;2753;49.196;8.286;2024-02-16T00:03:27;12.00;99.90
5461;DHT22;2753;49.196;8.286;2024-02-16T00:05:52;11.90;99.90
5461;DHT22;2753;49.196;8.286;2024-02-16T00:08:19;11.80;99.90
5461;DHT22;2753;49.196;8.286;2024-02-16T00:10:48;11.80;99.90
5461;DHT22;2753;49.196;8.286;2024-02-16T00:13:14;11.80;99.90
5461;DHT22;2753;49.196;8.286;2024-02-16T00:15:40;11.80;99.90
5461;DHT22;2753;49.196;8.286;2024-02-16T00:18:06;11.80;99.90
5461;DHT22;2753;49.196;8.286;2024-02-16T00:20:35;11.80;99.90
5461;DHT22;2753;49.196;8.286;2024-02-16T00:23:00;11.80;99.90
5461;DHT22;2753;49.196;8.286;2024-02-16T00:25:26;11.80;99.90
5461;DHT22;2753;49.196;8.286;2024-02-16T00:27:52;11.80;99.90
5461;DHT22;2753;49.196;8.286;2024-02-16T00:30:19;11.70;99.90
5461;DHT22;2753;49.196;8.286;2024-02-16T00:32:45;11.70;99.90
5461;DHT22;2753;49.196;8.286;2024-02-16T00:35:11;11.70;99.90
5461;DHT22;2753;49.196;8.286;2024-02-16T00:37:37;11.70;99.90
5461;DHT22;2753;49.196;8.286;2024-02-16T00:40:04;11.80;99.90
5461;DHT22;2753;49.196;8.286;2024-02-16T00:42:31;11.70;99.90
5461;DHT22;2753;49.196;8.286;2024-02-16T00:44:57;11.70;99.90
5461;DHT22;2753;49.196;8.286;2024-02-16T00:47:26;11.70;99.90
5461;DHT22;2753;49.196;8.286;2024-02-16T00:49:53;11.70;99.90
5461;DHT22;2753;49.196;8.286;2024-02-16T00:52:18;11.70;99.90
5461;DHT22;2753;49.196;8.286;2024-02-16T00:54:44;11.70;99.90
5461;DHT22;2753;49.196;8.286;2024-02-16T00:57:12;11.70;99.90
5461;DHT22;2753;49.196;8.286;2024-02-16T00:59:40;11.70;99.90
5461;DHT22;2753;49.196;8.286;2024-02-16T01:02:05;11.70;99.90
5461;DHT22;2753;49.196;8.286;2024-02-16T01:04:32;11.70;99.90
5461;DHT22;2753;49.196;8.286;2024-02-16T01:06:58;11.70;99.90
5461;DHT22;2753;49.196;8.286;2024-02-16T01:09:23;11.70;99.90
5461;DHT22;2753;49.196;8.286;2024-02-16T01:11:49;11.70;99.90
5461;DHT22;2753;49.196;8.286;2024-02-16T01:14:15;11.70;99.90
5461;DHT22;2753;49.196;8.286;2024-02-16T01:16:40;11.70;99.90
5461;DHT22;2753;49.196;8.286;2024-02-16T01:19:09;11.70;99.90
5461;DHT22;2753;49.196;8.286;2024-02-16T01:21:35;11.70;99.90
5461;DHT22;2753;49.196;8.286;2024-02-16T01:24:01;11.70;99.90
5461;DHT22;2753;49.196;8.286;2024-02-16T01:26:27;11.70;99.90
5461;DHT22;2753;49.196;8.286;2024-02-16T01:28:53;11.70;99.90
5461;DHT22;2753;49.196;8.286;2024-02-16T01:31:19;11.70;99.90
5461;DHT22;2753;49.196;8.286;2024-02-16T01:33:45;11.70;99.90
5461;DHT22;2753;49.196;8.286;2024-02-16T01:36:11;11.70;99.90
5461;DHT22;2753;49.196;8.286;2024-02-16T01:38:36;11.70;99.90
5461;DHT22;2753;49.196;8.286;2024-02-16T01:41:02;11.70;99.90
5461;DHT22;2753;49.196;8.286;2024-02-16T01:43:28;11.70;99.90
5461;DHT22;2753;49.196;8.286;2024-02-16T01:45:54;11.70;99.90
5461;DHT22;2753;49.196;8.286;2024-02-16T01:48:20;11.70;99.90
5461;DHT22;2753;49.196;8.286;2024-02-16T01:50:47;11.70;99.90
5461;DHT22;2753;49.196;8.286;2024-02-16T01:53:15;11.70;99.90
5461;DHT22;2753;49.196;8.286;2024-02-16T01:55:44;11.60;99.90
5461;DHT22;2753;49.196;8.286;2024-02-16T01:58:11;11.70;99.90
5461;DHT22;2753;49.196;8.286;2024-02-16T02:00:40;11.60;99.90
5461;DHT22;2753;49.196;8.286;2024-02-16T02:03:08;11.60;99.90
5461;DHT22;2753;49.196;8.286;2024-02-16T02:05:44;11.60;99.90
5461;DHT22;2753;49.196;8.286;2024-02-16T02:08:11;11.60;99.90
5461;DHT22;2753;49.196;8.286;2024-02-16T02:10:37;11.60;99.90
5461;DHT22;2753;49.196;8.286;2024-02-16T02:13:03;11.60;99.90
5461;DHT22;2753;49.196;8.286;2024-02-16T02:15:28;11.60;99.90
5461;DHT22;2753;49.196;8.286;2024-02-16T02:17:54;11.60;99.90
5461;DHT22;2753;49.196;8.286;2024-02-16T02:20:20;11.60;99.90
5461;DHT22;2753;49.196;8.286;2024-02-16T02:22:45;11.60;99.90
5461;DHT22;2753;49.196;8.286;2024-02-16T02:25:11;11.50;99.90
5461;DHT22;2753;49.196;8.286;2024-02-16T02:27:38;11.60;99.90
5461;DHT22;2753;49.196;8.286;2024-02-16T02:30:04;11.50;99.90
5461;DHT22;2753;49.196;8.286;2024-02-16T02:32:30;11.60;99.90
5461;DHT22;2753;49.196;8.286;2024-02-16T02:34:56;11.50;99.90
5461;DHT22;2753;49.196;8.286;2024-02-16T02:37:22;11.60;99.90
5461;DHT22;2753;49.196;8.286;2024-02-16T02:39:48;11.60;99.90
5461;DHT22;2753;49.196;8.286;2024-02-16T02:42:13;11.60;99.90
5461;DHT22;2753;49.196;8.286;2024-02-16T02:44:39;11.50;99.90
5461;DHT22;2753;49.196;8.286;2024-02-16T02:47:05;11.50;99.90
5461;DHT22;2753;49.196;8.286;2024-02-16T02:49:31;11.50;99.90
5461;DHT22;2753;49.196;8.286;2024-02-16T02:52:00;11.50;99.90
5461;DHT22;2753;49.196;8.286;2024-02-16T02:54:26;11.50;99.90
5461;DHT22;2753;49.196;8.286;2024-02-16T02:56:51;11.50;99.90
5461;DHT22;2753;49.196;8.286;2024-02-16T02:59:17;11.50;99.90
5461;DHT22;2753;49.196;8.286;2024-02-16T03:01:42;11.50;99.90
5461;DHT22;2753;49.196;8.286;2024-02-16T03:04:08;11.40;99.90
5461;DHT22;2753;49.196;8.286;2024-02-16T03:06:34;11.40;99.90
5461;DHT22;2753;49.196;8.286;2024-02-16T03:09:00;11.40;99.90
5461;DHT22;2753;49.196;8.286;2024-02-16T03:11:26;11.40;99.90
5461;DHT22;2753;49.196;8.286;2024-02-16T03:13:52;11.40;99.90
5461;DHT22;2753;49.196;8.286;2024-02-16T03:16:17;11.30;99.90
5461;DHT22;2753;49.196;8.286;2024-02-16T03:18:43;11.30;99.90
5461;DHT22;2753;49.196;8.286;2024-02-16T03:21:13;11.30;99.90
5461;DHT22;2753;49.196;8.286;2024-02-16T03:23:41;11.30;99.90
5461;DHT22;2753;49.196;8.286;2024-02-16T03:26:14;11.30;99.90
5461;DHT22;2753;49.196;8.286;2024-02-16T03:28:40;11.30;99.90
5461;DHT22;2753;49.196;8.286;2024-02-16T03:31:05;11.30;99.90
5461;DHT22;2753;49.196;8.286;2024-02-16T03:33:33;11.20;99.90
5461;DHT22;2753;49.196;8.286;2024-02-16T03:35:59;11.20;99.90
5461;DHT22;2753;49.196;8.286;2024-02-16T03:38:25;11.20;99.90
5461;DHT22;2753;49.196;8.286;2024-02-16T03:40:51;11.20;99.90
5461;DHT22;2753;49.196;8.286;2024-02-16T03:43:17;11.20;99.90
5461;DHT22;2753;49.196;8.286;2024-02-16T03:45:43;11.20;99.90
5461;DHT22;2753;49.196;8.286;2024-02-16T03:48:09;11.20;99.90
5461;DHT22;2753;49.196;8.286;2024-02-16T03:50:38;11.10;99.90
5461;DHT22;2753;49.196;8.286;2024-02-16T03:53:03;11.10;99.90
5461;DHT22;2753;49.196;8.286;2024-02-16T03:55:29;11.10;99.90
5461;DHT22;2753;49.196;8.286;2024-02-16T03:57:57;11.10;99.90
5461;DHT22;2753;49.196;8.286;2024-02-16T04:00:22;11.10;99.90
5461;DHT22;2753;49.196;8.286;2024-02-16T04:02:48;11.20;99.90
5461;DHT22;2753;49.196;8.286;2024-02-16T04:05:14;11.20;99.90
5461;DHT22;2753;49.196;8.286;2024-02-16T04:07:40;11.20;99.90
5461;DHT22;2753;49.196;8.286;2024-02-16T04:10:06;11.10;99.90
5461;DHT22;2753;49.196;8.286;2024-02-16T04:12:32;11.10;99.90
5461;DHT22;2753;49.196;8.286;2024-02-16T04:14:57;11.10;99.90
5461;DHT22;2753;49.196;8.286;2024-02-16T04:17:24;11.10;99.90
5461;DHT22;2753;49.196;8.286;2024-02-16T04:19:49;11.10;99.90
5461;DHT22;2753;49.196;8.286;2024-02-16T04:22:15;11.10;99.90
5461;DHT22;2753;49.196;8.286;2024-02-16T04:24:41;11.10;99.90
5461;DHT22;2753;49.196;8.286;2024-02-16T04:27:06;11.10;99.90
5461;DHT22;2753;49.196;8.286;2024-02-16T04:29:32;11.10;99.90
5461;DHT22;2753;49.196;8.286;2024-02-16T04:31:58;11.10;99.90
5461;DHT22;2753;49.196;8.286;2024-02-16T04:34:23;11.10;99.90
5461;DHT22;2753;49.196;8.286;2024-02-16T04:36:49;11.10;99.90
5461;DHT22;2753;49.196;8.286;2024-02-16T04:39:15;11.00;99.90
5461;DHT22;2753;49.196;8.286;2024-02-16T04:41:42;11.00;99.90
5461;DHT22;2753;49.196;8.286;2024-02-16T04:44:08;11.00;99.90
5461;DHT22;2753;49.196;8.286;2024-02-16T04:46:34;11.00;99.90
5461;DHT22;2753;49.196;8.286;2024-02-16T04:48:59;11.00;99.90
5461;DHT22;2753;49.196;8.286;2024-02-16T04:51:25;11.00;99.90
5461;DHT22;2753;49.196;8.286;2024-02-16T04:53:50;10.90;99.90
5461;DHT22;2753;49.196;8.286;2024-02-16T04:56:16;10.90;99.90
5461;DHT22;2753;49.196;8.286;2024-02-16T04:58:42;10.90;99.90
5461;DHT22;2753;49.196;8.286;2024-02-16T05:01:08;10.90;99.90
5461;DHT22;2753;49.196;8.286;2024-02-16T05:03:36;10.90;99.90
5461;DHT22;2753;49.196;8.286;2024-02-16T05:06:02;10.90;99.90
5461;DHT22;2753;49.196;8.286;2024-02-16T05:08:28;10.90;99.90
5461;DHT22;2753;49.196;8.286;2024-02-16T05:10:54;10.90;99.90
5461;DHT22;2753;49.196;8.286;2024-02-16T05:13:19;10.90;99.90
5461;DHT22;2753;49.196;8.286;2024-02-16T05:15:45;10.90;99.90
5461;DHT22;2753;49.196;8.286;2024-02-16T05:18:14;10.90;99.90
5461;DHT22;2753;49.196;8.286;2024-02-16T05:20:40;10.90;99.90
5461;DHT22;2753;49.196;8.286;2024-02-16T05:23:06;10.90;99.90
5461;DHT22;2753;49.196;8.286;2024-02-16T05:25:31;11.00;99.90
5461;DHT22;2753;49.196;8.286;2024-02-16T05:27:57;10.90;99.90
5461;DHT22;2753;49.196;8.286;2024-02-16T05:30:23;10.90;99.90
5461;DHT22;2753;49.196;8.286;2024-02-16T05:32:49;10.90;99.90
5461;DHT22;2753;49.196;8.286;2024-02-16T05:35:14;10.90;99.90
5461;DHT22;2753;49.196;8.286;2024-02-16T05:37:44;11.00;99.90
5461;DHT22;2753;49.196;8.286;2024-02-16T05:40:11;10.90;99.90
5461;DHT22;2753;49.196;8.286;2024-02-16T05:42:57;10.90;99.90
5461;DHT22;2753;49.196;8.286;2024-02-16T05:45:24;10.90;99.90
5461;DHT22;2753;49.196;8.286;2024-02-16T05:47:50;10.90;99.90
5461;DHT22;2753;49.196;8.286;2024-02-16T05:50:17;10.90;99.90
5461;DHT22;2753;49.196;8.286;2024-02-16T05:52:43;10.90;99.90
5461;DHT22;2753;49.196;8.286;2024-02-16T05:55:10;10.90;99.90
5461;DHT22;2753;49.196;8.286;2024-02-16T05:57:36;10.90;99.90
5461;DHT22;2753;49.196;8.286;2024-02-16T06:00:07;10.90;99.90
5461;DHT22;2753;49.196;8.286;2024-02-16T06:02:34;10.90;99.90
5461;DHT22;2753;49.196;8.286;2024-02-16T06:05:01;10.90;99.90
5461;DHT22;2753;49.196;8.286;2024-02-16T06:07:28;10.90;99.90
5461;DHT22;2753;49.196;8.286;2024-02-16T06:09:55;10.90;99.90
5461;DHT22;2753;49.196;8.286;2024-02-16T06:12:21;10.90;99.90
5461;DHT22;2753;49.196;8.286;2024-02-16T06:14:47;10.80;99.90
5461;DHT22;2753;49.196;8.286;2024-02-16T06:17:14;10.90;99.90
5461;DHT22;2753;49.196;8.286;2024-02-16T06:19:43;10.80;99.90
5461;DHT22;2753;49.196;8.286;2024-02-16T06:22:09;10.80;99.90
5461;DHT22;2753;49.196;8.286;2024-02-16T06:24:38;10.80;99.90
5461;DHT22;2753;49.196;8.286;2024-02-16T06:27:04;10.80;99.90
5461;DHT22;2753;49.196;8.286;2024-02-16T06:29:30;10.80;99.90
5461;DHT22;2753;49.196;8.286;2024-02-16T06:31:56;10.80;99.90
5461;DHT22;2753;49.196;8.286;2024-02-16T06:34:21;10.80;99.90
5461;DHT22;2753;49.196;8.286;2024-02-16T06:36:47;10.80;99.90
5461;DHT22;2753;49.196;8.286;2024-02-16T06:39:16;10.70;99.90
5461;DHT22;2753;49.196;8.286;2024-02-16T06:41:44;10.70;99.90
5461;DHT22;2753;49.196;8.286;2024-02-16T06:44:15;10.70;99.90
5461;DHT22;2753;49.196;8.286;2024-02-16T06:46:44;10.70;99.90
5461;DHT22;2753;49.196;8.286;2024-02-16T06:49:10;10.70;99.90
5461;DHT22;2753;49.196;8.286;2024-02-16T06:51:36;10.70;99.90
5461;DHT22;2753;49.196;8.286;2024-02-16T06:54:03;10.70;99.90
5461;DHT22;2753;49.196;8.286;2024-02-16T06:56:30;10.70;99.90
5461;DHT22;2753;49.196;8.286;2024-02-16T06:58:56;10.70;99.90
5461;DHT22;2753;49.196;8.286;2024-02-16T07:01:22;10.70;99.90
5461;DHT22;2753;49.196;8.286;2024-02-16T07:03:47;10.80;99.90
5461;DHT22;2753;49.196;8.286;2024-02-16T07:06:13;10.80;99.90
5461;DHT22;2753;49.196;8.286;2024-02-16T07:08:43;10.80;99.90
5461;DHT22;2753;49.196;8.286;2024-02-16T07:11:12;10.80;99.90
5461;DHT22;2753;49.196;8.286;2024-02-16T07:13:41;10.80;99.90
5461;DHT22;2753;49.196;8.286;2024-02-16T07:16:10;10.90;99.90
5461;DHT22;2753;49.196;8.286;2024-02-16T07:18:36;10.90;99.90
5461;DHT22;2753;49.196;8.286;2024-02-16T07:21:02;10.90;99.90
5461;DHT22;2753;49.196;8.286;2024-02-16T07:23:28;10.90;99.90
5461;DHT22;2753;49.196;8.286;2024-02-16T07:25:57;10.90;99.90
5461;DHT22;2753;49.196;8.286;2024-02-16T07:28:24;10.90;99.90
5461;DHT22;2753;49.196;8.286;2024-02-16T07:30:50;10.90;99.90
5461;DHT22;2753;49.196;8.286;2024-02-16T07:33:17;10.90;99.90
5461;DHT22;2753;49.196;8.286;2024-02-16T07:35:43;10.90;99.90
5461;DHT22;2753;49.196;8.286;2024-02-16T07:38:09;10.90;99.90
5461;DHT22;2753;49.196;8.286;2024-02-16T07:40:35;10.90;99.90
5461;DHT22;2753;49.196;8.286;2024-02-16T07:43:01;10.90;99.90
5461;DHT22;2753;49.196;8.286;2024-02-16T07:45:26;10.90;99.90
5461;DHT22;2753;49.196;8.286;2024-02-16T07:47:52;10.90;99.90
5461;DHT22;2753;49.196;8.286;2024-02-16T07:50:21;10.90;99.90
5461;DHT22;2753;49.196;8.286;2024-02-16T07:52:48;10.90;99.90
5461;DHT22;2753;49.196;8.286;2024-02-16T07:55:14;10.90;99.90
5461;DHT22;2753;49.196;8.286;2024-02-16T07:57:40;10.90;99.90
5461;DHT22;2753;49.196;8.286;2024-02-16T08:00:06;10.90;99.90
5461;DHT22;2753;49.196;8.286;2024-02-16T08:02:35;11.00;99.90
5461;DHT22;2753;49.196;8.286;2024-02-16T08:05:00;11.00;99.90
5461;DHT22;2753;49.196;8.286;2024-02-16T08:07:26;11.00;99.90
5461;DHT22;2753;49.196;8.286;2024-02-16T08:09:52;11.00;99.90
5461;DHT22;2753;49.196;8.286;2024-02-16T08:12:18;11.00;99.90
5461;DHT22;2753;49.196;8.286;2024-02-16T08:14:43;11.00;99.90
5461;DHT22;2753;49.196;8.286;2024-02-16T08:17:13;11.10;99.90
5461;DHT22;2753;49.196;8.286;2024-02-16T08:19:39;11.10;99.90
5461;DHT22;2753;49.196;8.286;2024-02-16T08:22:06;11.10;99.90
5461;DHT22;2753;49.196;8.286;2024-02-16T08:24:35;11.10;99.90
5461;DHT22;2753;49.196;8.286;2024-02-16T08:27:01;11.20;99.90
5461;DHT22;2753;49.196;8.286;2024-02-16T08:29:27;11.20;99.90
5461;DHT22;2753;49.196;8.286;2024-02-16T08:31:54;11.20;99.90
5461;DHT22;2753;49.196;8.286;2024-02-16T08:34:20;11.20;99.90
5461;DHT22;2753;49.196;8.286;2024-02-16T08:36:47;11.30;99.90
5461;DHT22;2753;49.196;8.286;2024-02-16T08:39:13;11.30;99.90
5461;DHT22;2753;49.196;8.286;2024-02-16T08:41:39;11.40;99.90
5461;DHT22;2753;49.196;8.286;2024-02-16T08:44:06;11.40;99.90
5461;DHT22;2753;49.196;8.286;2024-02-16T08:46:39;11.40;99.90
5461;DHT22;2753;49.196;8.286;2024-02-16T08:49:05;11.40;99.90
5461;DHT22;2753;49.196;8.286;2024-02-16T08:51:32;11.50;99.90
5461;DHT22;2753;49.196;8.286;2024-02-16T08:53:58;11.50;99.90
5461;DHT22;2753;49.196;8.286;2024-02-16T08:56:24;11.60;99.90
5461;DHT22;2753;49.196;8.286;2024-02-16T08:58:50;11.60;99.90
5461;DHT22;2753;49.196;8.286;2024-02-16T09:01:16;11.60;99.90
5461;DHT22;2753;49.196;8.286;2024-02-16T09:03:42;11.70;99.90
5461;DHT22;2753;49.196;8.286;2024-02-16T09:06:08;11.70;99.90
5461;DHT22;2753;49.196;8.286;2024-02-16T09:08:34;11.80;99.90
5461;DHT22;2753;49.196;8.286;2024-02-16T09:11:04;11.90;99.90
5461;DHT22;2753;49.196;8.286;2024-02-16T09:13:39;11.90;99.90
5461;DHT22;2753;49.196;8.286;2024-02-16T09:16:04;12.00;99.90
5461;DHT22;2753;49.196;8.286;2024-02-16T09:18:30;12.00;99.90
5461;DHT22;2753;49.196;8.286;2024-02-16T09:20:56;12.10;99.90
5461;DHT22;2753;49.196;8.286;2024-02-16T09:23:22;12.20;99.90
5461;DHT22;2753;49.196;8.286;2024-02-16T09:25:47;12.30;99.90
5461;DHT22;2753;49.196;8.286;2024-02-16T09:28:14;12.40;99.90
5461;DHT22;2753;49.196;8.286;2024-02-16T09:30:40;12.50;99.90
5461;DHT22;2753;49.196;8.286;2024-02-16T09:33:06;12.60;99.90
5461;DHT22;2753;49.196;8.286;2024-02-16T09:35:32;12.80;99.90
5461;DHT22;2753;49.196;8.286;2024-02-16T09:37:58;13.00;99.90
5461;DHT22;2753;49.196;8.286;2024-02-16T09:40:24;13.20;99.90
5461;DHT22;2753;49.196;8.286;2024-02-16T09:42:50;13.40;99.90
5461;DHT22;2753;49.196;8.286;2024-02-16T09:45:16;13.50;99.90
5461;DHT22;2753;49.196;8.286;2024-02-16T09:47:46;13.50;99.90
5461;DHT22;2753;49.196;8.286;2024-02-16T09:50:15;13.60;99.90
5461;DHT22;2753;49.196;8.286;2024-02-16T09:52:41;13.80;99.90
5461;DHT22;2753;49.196;8.286;2024-02-16T09:55:12;14.00;99.90
5461;DHT22;2753;49.196;8.286;2024-02-16T09:57:38;14.10;99.90
5461;DHT22;2753;49.196;8.286;2024-02-16T10:00:04;14.30;99.90
5461;DHT22;2753;49.196;8.286;2024-02-16T10:02:41;14.30;99.90
5461;DHT22;2753;49.196;8.286;2024-02-16T10:05:30;14.30;99.90
5461;DHT22;2753;49.196;8.286;2024-02-16T10:07:56;14.30;99.90
5461;DHT22;2753;49.196;8.286;2024-02-16T10:10:24;14.30;99.90
5461;DHT22;2753;49.196;8.286;2024-02-16T10:12:50;14.50;99.90
5461;DHT22;2753;49.196;8.286;2024-02-16T10:15:20;14.70;99.90
5461;DHT22;2753;49.196;8.286;2024-02-16T10:18:01;14.90;99.90
5461;DHT22;2753;49.196;8.286;2024-02-16T10:20:29;14.90;99.90
5461;DHT22;2753;49.196;8.286;2024-02-16T10:23:11;14.90;99.90
5461;DHT22;2753;49.196;8.286;2024-02-16T10:25:40;15.00;99.90
5461;DHT22;2753;49.196;8.286;2024-02-16T10:28:10;14.90;99.90
5461;DHT22;2753;49.196;8.286;2024-02-16T10:30:41;15.00;99.90
5461;DHT22;2753;49.196;8.286;2024-02-16T10:33:08;15.00;99.90
5461;DHT22;2753;49.196;8.286;2024-02-16T10:35:35;15.10;99.90
5461;DHT22;2753;49.196;8.286;2024-02-16T10:38:03;15.10;99.90
5461;DHT22;2753;49.196;8.286;2024-02-16T10:40:39;15.20;99.90
5461;DHT22;2753;49.196;8.286;2024-02-16T10:43:09;15.20;99.90
5461;DHT22;2753;49.196;8.286;2024-02-16T10:45:39;15.30;99.90
5461;DHT22;2753;49.196;8.286;2024-02-16T10:48:05;15.40;99.90
5461;DHT22;2753;49.196;8.286;2024-02-16T10:50:33;15.40;99.90
5461;DHT22;2753;49.196;8.286;2024-02-16T10:53:05;15.50;99.90
5461;DHT22;2753;49.196;8.286;2024-02-16T10:55:34;15.50;99.90
5461;DHT22;2753;49.196;8.286;2024-02-16T10:58:00;15.50;99.90
5461;DHT22;2753;49.196;8.286;2024-02-16T11:00:26;15.60;99.90
5461;DHT22;2753;49.196;8.286;2024-02-16T11:03:03;15.60;99.90
5461;DHT22;2753;49.196;8.286;2024-02-16T11:05:33;15.60;99.90
5461;DHT22;2753;49.196;8.286;2024-02-16T11:08:03;15.50;99.90
5461;DHT22;2753;49.196;8.286;2024-02-16T11:10:29;15.50;99.90
5461;DHT22;2753;49.196;8.286;2024-02-16T11:13:01;15.50;99.90
5461;DHT22;2753;49.196;8.286;2024-02-16T11:15:30;15.50;99.90
5461;DHT22;2753;49.196;8.286;2024-02-16T11:17:57;15.50;99.90
5461;DHT22;2753;49.196;8.286;2024-02-16T11:20:25;15.50;99.90
5461;DHT22;2753;49.196;8.286;2024-02-16T11:23:13;15.50;99.90
5461;DHT22;2753;49.196;8.286;2024-02-16T11:25:49;15.50;99.90
5461;DHT22;2753;49.196;8.286;2024-02-16T11:28:15;15.60;99.90
5461;DHT22;2753;49.196;8.286;2024-02-16T11:30:42;15.60;99.90
5461;DHT22;2753;49.196;8.286;2024-02-16T11:33:10;15.50;99.90
5461;DHT22;2753;49.196;8.286;2024-02-16T11:35:36;15.60;99.90
5461;DHT22;2753;49.196;8.286;2024-02-16T11:38:02;15.60;99.90
5461;DHT22;2753;49.196;8.286;2024-02-16T11:40:28;15.60;99.90
5461;DHT22;2753;49.196;8.286;2024-02-16T11:42:59;15.70;99.90
5461;DHT22;2753;49.196;8.286;2024-02-16T11:45:25;15.80;99.90
5461;DHT22;2753;49.196;8.286;2024-02-16T11:48:02;15.90;99.90
5461;DHT22;2753;49.196;8.286;2024-02-16T11:50:28;16.00;99.90
5461;DHT22;2753;49.196;8.286;2024-02-16T11:52:55;16.00;99.90
5461;DHT22;2753;49.196;8.286;2024-02-16T11:55:21;16.10;99.90
5461;DHT22;2753;49.196;8.286;2024-02-16T11:57:47;16.10;99.90
5461;DHT22;2753;49.196;8.286;2024-02-16T12:00:16;16.10;99.90
5461;DHT22;2753;49.196;8.286;2024-02-16T12:02:42;16.10;99.90
5461;DHT22;2753;49.196;8.286;2024-02-16T12:05:08;16.10;99.90
5461;DHT22;2753;49.196;8.286;2024-02-16T12:07:37;16.20;99.90
5461;DHT22;2753;49.196;8.286;2024-02-16T12:10:06;16.20;99.90
5461;DHT22;2753;49.196;8.286;2024-02-16T12:12:33;16.20;99.90
5461;DHT22;2753;49.196;8.286;2024-02-16T12:14:58;16.20;99.90
5461;DHT22;2753;49.196;8.286;2024-02-16T12:17:24;16.10;99.90
5461;DHT22;2753;49.196;8.286;2024-02-16T12:19:52;16.10;99.90
5461;DHT22;2753;49.196;8.286;2024-02-16T12:22:18;16.10;99.90
5461;DHT22;2753;49.196;8.286;2024-02-16T12:24:45;16.00;99.90
5461;DHT22;2753;49.196;8.286;2024-02-16T12:27:14;16.00;99.90
5461;DHT22;2753;49.196;8.286;2024-02-16T12:29:40;16.00;99.90
5461;DHT22;2753;49.196;8.286;2024-02-16T12:32:06;15.90;99.90
5461;DHT22;2753;49.196;8.286;2024-02-16T12:34:35;15.90;99.90
5461;DHT22;2753;49.196;8.286;2024-02-16T12:37:07;16.00;99.90
5461;DHT22;2753;49.196;8.286;2024-02-16T12:39:34;15.90;99.90
5461;DHT22;2753;49.196;8.286;2024-02-16T12:41:59;15.90;99.90
5461;DHT22;2753;49.196;8.286;2024-02-16T12:44:25;15.90;99.90
5461;DHT22;2753;49.196;8.286;2024-02-16T12:46:51;16.00;99.90
5461;DHT22;2753;49.196;8.286;2024-02-16T12:49:21;16.00;99.90
5461;DHT22;2753;49.196;8.286;2024-02-16T12:51:51;16.10;99.90
5461;DHT22;2753;49.196;8.286;2024-02-16T12:54:17;16.10;99.90
5461;DHT22;2753;49.196;8.286;2024-02-16T12:56:47;16.10;99.90
5461;DHT22;2753;49.196;8.286;2024-02-16T12:59:14;16.10;99.90
5461;DHT22;2753;49.196;8.286;2024-02-16T13:01:39;16.20;99.90
5461;DHT22;2753;49.196;8.286;2024-02-16T13:04:06;16.30;99.90
5461;DHT22;2753;49.196;8.286;2024-02-16T13:06:32;16.30;99.90
5461;DHT22;2753;49.196;8.286;2024-02-16T13:09:01;16.40;99.90
5461;DHT22;2753;49.196;8.286;2024-02-16T13:11:28;16.30;99.90
5461;DHT22;2753;49.196;8.286;2024-02-16T13:13:54;16.30;99.90
5461;DHT22;2753;49.196;8.286;2024-02-16T13:16:20;16.40;99.90
5461;DHT22;2753;49.196;8.286;2024-02-16T13:18:46;16.30;99.90
5461;DHT22;2753;49.196;8.286;2024-02-16T13:21:12;16.30;99.90
5461;DHT22;2753;49.196;8.286;2024-02-16T13:23:38;16.30;99.90
5461;DHT22;2753;49.196;8.286;2024-02-16T13:26:04;16.30;99.90
5461;DHT22;2753;49.196;8.286;2024-02-16T13:28:30;16.30;99.90
5461;DHT22;2753;49.196;8.286;2024-02-16T13:30:55;16.20;99.90
5461;DHT22;2753;49.196;8.286;2024-02-16T13:33:21;16.20;99.90
5461;DHT22;2753;49.196;8.286;2024-02-16T13:35:47;16.20;99.90
5461;DHT22;2753;49.196;8.286;2024-02-16T13:38:13;16.20;99.90
5461;DHT22;2753;49.196;8.286;2024-02-16T13:40:39;16.10;99.90
5461;DHT22;2753;49.196;8.286;2024-02-16T13:43:05;16.10;99.90
5461;DHT22;2753;49.196;8.286;2024-02-16T13:45:54;16.10;99.90
5461;DHT22;2753;49.196;8.286;2024-02-16T13:48:20;16.00;99.90
5461;DHT22;2753;49.196;8.286;2024-02-16T13:50:47;16.00;99.90
5461;DHT22;2753;49.196;8.286;2024-02-16T13:53:13;16.00;99.90
5461;DHT22;2753;49.196;8.286;2024-02-16T13:58:06;16.00;99.90
5461;DHT22;2753;49.196;8.286;2024-02-16T14:00:31;16.00;99.90
5461;DHT22;2753;49.196;8.286;2024-02-16T14:02:57;16.00;99.90
5461;DHT22;2753;49.196;8.286;2024-02-16T14:05:22;16.00;99.90
5461;DHT22;2753;49.196;8.286;2024-02-16T14:07:51;16.00;99.90
5461;DHT22;2753;49.196;8.286;2024-02-16T14:10:17;16.00;99.90
5461;DHT22;2753;49.196;8.286;2024-02-16T14:12:45;16.00;99.90
5461;DHT22;2753;49.196;8.286;2024-02-16T14:15:11;16.00;99.90
5461;DHT22;2753;49.196;8.286;2024-02-16T14:17:41;16.00;99.90
5461;DHT22;2753;49.196;8.286;2024-02-16T14:20:07;16.00;99.90
5461;DHT22;2753;49.196;8.286;2024-02-16T14:22:33;16.00;99.90
5461;DHT22;2753;49.196;8.286;2024-02-16T14:24:59;15.90;99.90
5461;DHT22;2753;49.196;8.286;2024-02-16T14:27:25;15.90;99.90
5461;DHT22;2753;49.196;8.286;2024-02-16T14:29:51;15.90;99.90
5461;DHT22;2753;49.196;8.286;2024-02-16T14:32:17;15.90;99.90
5461;DHT22;2753;49.196;8.286;2024-02-16T14:34:42;15.90;99.90
5461;DHT22;2753;49.196;8.286;2024-02-16T14:37:09;15.80;99.90
5461;DHT22;2753;49.196;8.286;2024-02-16T14:39:35;15.80;99.90
5461;DHT22;2753;49.196;8.286;2024-02-16T14:42:01;15.80;99.90
5461;DHT22;2753;49.196;8.286;2024-02-16T14:44:26;15.80;99.90
5461;DHT22;2753;49.196;8.286;2024-02-16T14:46:52;15.80;99.90
5461;DHT22;2753;49.196;8.286;2024-02-16T14:49:18;15.70;99.90
5461;DHT22;2753;49.196;8.286;2024-02-16T14:51:50;15.70;99.90
5461;DHT22;2753;49.196;8.286;2024-02-16T14:54:16;15.60;99.90
5461;DHT22;2753;49.196;8.286;2024-02-16T14:56:41;15.60;99.90
5461;DHT22;2753;49.196;8.286;2024-02-16T14:59:08;15.60;99.90
5461;DHT22;2753;49.196;8.286;2024-02-16T15:01:36;15.50;99.90
5461;DHT22;2753;49.196;8.286;2024-02-16T15:04:03;15.40;99.90
5461;DHT22;2753;49.196;8.286;2024-02-16T15:06:28;15.40;99.90
5461;DHT22;2753;49.196;8.286;2024-02-16T15:08:54;15.40;99.90
5461;DHT22;2753;49.196;8.286;2024-02-16T15:11:20;15.20;99.90
5461;DHT22;2753;49.196;8.286;2024-02-16T15:13:45;15.20;99.90
5461;DHT22;2753;49.196;8.286;2024-02-16T15:16:11;15.10;99.90
5461;DHT22;2753;49.196;8.286;2024-02-16T15:18:40;15.10;99.90
5461;DHT22;2753;49.196;8.286;2024-02-16T15:21:06;15.20;99.90
5461;DHT22;2753;49.196;8.286;2024-02-16T15:23:32;15.10;99.90
5461;DHT22;2753;49.196;8.286;2024-02-16T15:25:57;15.10;99.90
5461;DHT22;2753;49.196;8.286;2024-02-16T15:28:27;15.10;99.90
5461;DHT22;2753;49.196;8.286;2024-02-16T15:30:52;15.00;99.90
5461;DHT22;2753;49.196;8.286;2024-02-16T15:33:18;15.00;99.90
5461;DHT22;2753;49.196;8.286;2024-02-16T15:35:44;15.00;99.90
5461;DHT22;2753;49.196;8.286;2024-02-16T15:38:09;14.90;99.90
5461;DHT22;2753;49.196;8.286;2024-02-16T15:40:35;14.90;99.90
5461;DHT22;2753;49.196;8.286;2024-02-16T15:43:02;15.00;99.90
5461;DHT22;2753;49.196;8.286;2024-02-16T15:45:29;14.90;99.90
5461;DHT22;2753;49.196;8.286;2024-02-16T15:47:54;14.90;99.90
5461;DHT22;2753;49.196;8.286;2024-02-16T15:50:20;14.80;99.90
5461;DHT22;2753;49.196;8.286;2024-02-16T15:52:46;14.90;99.90
5461;DHT22;2753;49.196;8.286;2024-02-16T15:55:11;14.70;99.90
5461;DHT22;2753;49.196;8.286;2024-02-16T15:57:38;14.70;99.90
5461;DHT22;2753;49.196;8.286;2024-02-16T16:00:04;14.70;99.90
5461;DHT22;2753;49.196;8.286;2024-02-16T16:02:32;14.70;99.90